createdAt,value
2018-11-13T00:00:35.601Z,25.50
2018-11-13T00:03:05.122Z,26.27
2018-11-13T00:05:40.754Z,26.37
2018-11-13T00:08:10.425Z,25.23
2018-11-13T00:10:40.039Z,25.90
2018-11-13T00:13:09.781Z,26.57
2018-11-13T00:15:39.698Z,23.43
2018-11-13T00:18:08.711Z,25.80
2018-11-13T00:20:37.969Z,23.73
2018-11-13T00:23:07.670Z,25.00
2018-11-13T00:25:36.906Z,25.77
2018-11-13T00:28:05.837Z,23.40
2018-11-13T00:30:34.814Z,24.77
2018-11-13T00:33:03.746Z,23.97
2018-11-13T00:35:32.997Z,24.27
2018-11-13T00:38:02.106Z,23.37
2018-11-13T00:40:30.986Z,23.17
2018-11-13T00:42:59.875Z,24.80
2018-11-13T00:45:29.123Z,24.07
2018-11-13T00:47:58.254Z,23.43
2018-11-13T00:50:27.206Z,22.90
2018-11-13T00:52:56.459Z,22.03
2018-11-13T00:55:25.337Z,21.80
2018-11-13T00:57:54.283Z,19.27
2018-11-13T01:00:23.225Z,21.13
2018-11-13T01:02:52.612Z,20.87
2018-11-13T01:05:22.061Z,19.87
2018-11-13T01:07:52.105Z,19.97
2018-11-13T01:10:21.785Z,19.90
2018-11-13T01:12:51.001Z,19.33
2018-11-13T01:15:21.073Z,20.50
2018-11-13T01:17:50.393Z,20.97
2018-11-13T01:20:20.041Z,20.03
2018-11-13T01:22:49.395Z,20.67
2018-11-13T01:25:18.706Z,22.00
2018-11-13T01:27:47.660Z,20.63
2018-11-13T01:30:17.548Z,21.47
2018-11-13T01:32:47.081Z,23.77
2018-11-13T01:35:17.358Z,22.63
2018-11-13T01:37:46.311Z,23.33
2018-11-13T01:40:17.082Z,22.43
2018-11-13T01:42:46.044Z,21.00
2018-11-13T01:45:16.162Z,23.47
2018-11-13T01:47:45.266Z,21.20
2018-11-13T01:50:14.701Z,21.90
2018-11-13T01:52:43.612Z,19.80
2018-11-13T01:55:13.957Z,20.97
2018-11-13T01:57:42.881Z,19.07
2018-11-13T02:00:16.906Z,18.10
2018-11-13T02:02:47.207Z,17.43
2018-11-13T02:05:16.944Z,17.37
2018-11-13T02:07:46.289Z,17.30
2018-11-13T02:10:15.923Z,16.80
2018-11-13T02:12:45.345Z,17.97
2018-11-13T02:15:14.526Z,17.90
2018-11-13T02:17:44.118Z,17.67
2018-11-13T02:20:15.924Z,18.70
2018-11-13T02:22:45.361Z,19.07
2018-11-13T02:25:16.606Z,20.83
2018-11-13T02:27:46.081Z,20.57
2018-11-13T02:30:20.042Z,20.87
2018-11-13T02:32:49.613Z,22.57
2018-11-13T02:35:18.766Z,22.77
2018-11-13T02:37:47.718Z,22.33
2018-11-13T02:40:17.017Z,21.90
2018-11-13T02:42:45.917Z,23.20
2018-11-13T02:45:16.892Z,24.20
2018-11-13T02:47:45.843Z,23.23
2018-11-13T02:50:16.818Z,25.00
2018-11-13T02:52:45.798Z,25.60
2018-11-13T02:55:15.024Z,27.50
2018-11-13T02:57:44.672Z,25.63
2018-11-13T03:00:15.648Z,27.27
2018-11-13T03:02:44.950Z,28.17
2018-11-13T03:05:17.334Z,26.50
2018-11-13T03:07:46.731Z,29.23
2018-11-13T03:10:16.824Z,35.17
2018-11-13T03:12:46.198Z,29.17
2018-11-13T03:15:16.475Z,30.43
2018-11-13T03:17:45.406Z,29.33
2018-11-13T03:20:16.394Z,34.93
2018-11-13T03:22:46.065Z,37.57
2018-11-13T03:25:16.578Z,38.53
2018-11-13T03:27:45.485Z,47.53
2018-11-13T03:30:25.079Z,45.47
2018-11-13T03:32:54.715Z,43.20
2018-11-13T03:35:24.060Z,40.30
2018-11-13T03:37:53.242Z,39.80
2018-11-13T03:40:22.972Z,35.40
2018-11-13T03:42:52.410Z,41.73
2018-11-13T03:45:21.631Z,37.93
2018-11-13T03:47:50.813Z,41.80
2018-11-13T03:50:21.209Z,49.60
2018-11-13T03:52:50.553Z,41.30
2018-11-13T03:55:20.253Z,45.53
2018-11-13T03:57:50.070Z,47.53
2018-11-13T04:00:23.571Z,46.77
2018-11-13T04:02:52.765Z,50.27
2018-11-13T04:05:22.250Z,53.20
2018-11-13T04:07:53.581Z,55.70
2018-11-13T04:10:23.201Z,52.53
2018-11-13T04:12:52.672Z,49.40
2018-11-13T04:15:24.754Z,57.47
2018-11-13T04:17:53.691Z,56.43
2018-11-13T04:20:23.334Z,47.10
2018-11-13T04:22:52.332Z,54.87
2018-11-13T04:25:21.574Z,63.03
2018-11-13T04:27:50.649Z,68.53
2018-11-13T04:30:20.210Z,66.30
2018-11-13T04:32:49.523Z,66.57
2018-11-13T04:35:19.193Z,63.97
2018-11-13T04:37:48.385Z,42.57
2018-11-13T04:40:18.625Z,26.10
2018-11-13T04:42:50.943Z,15.83
2018-11-13T04:45:21.221Z,10.70
2018-11-13T04:47:51.051Z,7.20
2018-11-13T04:50:21.189Z,7.00
2018-11-13T04:52:50.569Z,9.37
2018-11-13T04:55:20.060Z,15.13
2018-11-13T04:57:50.009Z,5.70
2018-11-13T05:00:20.718Z,7.57
2018-11-13T05:02:50.242Z,5.27
2018-11-13T05:05:20.050Z,9.70
2018-11-13T05:07:52.421Z,7.80
2018-11-13T05:10:21.513Z,3.60
2018-11-13T05:12:50.542Z,3.90
2018-11-13T05:15:19.818Z,3.87
2018-11-13T05:17:49.385Z,4.07
2018-11-13T05:20:18.882Z,4.37
2018-11-13T05:22:48.155Z,4.97
2018-11-13T05:25:18.689Z,5.03
2018-11-13T05:27:47.944Z,4.00
2018-11-13T05:30:20.045Z,6.23
2018-11-13T05:32:49.300Z,3.83
2018-11-13T05:35:19.497Z,4.43
2018-11-13T05:37:48.857Z,4.13
2018-11-13T05:40:22.522Z,4.13
2018-11-13T05:42:51.869Z,3.90
2018-11-13T05:45:22.234Z,4.10
2018-11-13T05:47:51.349Z,3.80
2018-11-13T05:50:21.074Z,4.10
2018-11-13T05:52:51.465Z,4.30
2018-11-13T05:55:20.589Z,4.00
2018-11-13T05:57:49.973Z,3.60
2018-11-13T06:00:36.582Z,3.60
2018-11-13T06:03:06.044Z,3.50
2018-11-13T06:05:35.397Z,3.93
2018-11-13T06:08:04.717Z,4.07
2018-11-13T06:10:33.659Z,4.70
2018-11-13T06:13:02.987Z,4.83
2018-11-13T06:15:32.205Z,4.77
2018-11-13T06:18:01.369Z,4.43
2018-11-13T06:20:30.498Z,4.50
2018-11-13T06:22:59.694Z,4.87
2018-11-13T06:25:28.818Z,5.03
2018-11-13T06:27:57.969Z,10.90
2018-11-13T06:30:27.459Z,12.23
2018-11-13T06:32:56.859Z,10.53
2018-11-13T06:35:26.303Z,11.40
2018-11-13T06:37:55.700Z,10.97
2018-11-13T06:40:24.902Z,7.33
2018-11-13T06:42:54.203Z,7.07
2018-11-13T06:45:23.913Z,5.03
2018-11-13T06:47:53.289Z,5.67
2018-11-13T06:50:22.709Z,5.83
2018-11-13T06:52:51.995Z,5.80
2018-11-13T06:55:36.324Z,5.23
2018-11-13T06:58:05.933Z,5.10
2018-11-13T07:00:35.159Z,4.60
2018-11-13T07:03:04.463Z,4.47
2018-11-13T07:05:33.724Z,4.03
2018-11-13T07:08:03.029Z,4.00
2018-11-13T07:10:32.575Z,4.67
2018-11-13T07:13:02.070Z,4.27
2018-11-13T07:15:32.065Z,4.30
2018-11-13T07:18:03.505Z,4.50
2018-11-13T07:20:33.884Z,4.13
2018-11-13T07:23:03.457Z,3.63
2018-11-13T07:25:32.739Z,3.60
2018-11-13T07:28:01.960Z,3.63
2018-11-13T07:30:31.054Z,4.00
2018-11-13T07:33:00.150Z,4.30
2018-11-13T07:35:29.258Z,4.07
2018-11-13T07:37:59.394Z,4.37
2018-11-13T07:40:28.853Z,4.07
2018-11-13T07:42:58.057Z,4.80
2018-11-13T07:45:27.373Z,4.67
2018-11-13T07:47:56.874Z,4.30
2018-11-13T07:50:26.049Z,4.13
2018-11-13T07:52:55.361Z,4.20
2018-11-13T07:55:24.573Z,3.70
2018-11-13T07:57:53.797Z,4.10
2018-11-13T08:00:24.370Z,3.80
2018-11-13T08:02:55.152Z,4.73
2018-11-13T08:05:24.494Z,4.73
2018-11-13T08:07:53.718Z,4.80
2018-11-13T08:10:22.917Z,5.03
2018-11-13T08:12:52.439Z,5.20
2018-11-13T08:15:21.606Z,5.27
2018-11-13T08:17:50.815Z,8.57
2018-11-13T08:20:20.009Z,6.10
2018-11-13T08:22:49.154Z,6.13
2018-11-13T08:25:18.377Z,10.10
2018-11-13T08:27:47.506Z,12.70
2018-11-13T08:30:18.590Z,13.30
2018-11-13T08:32:48.159Z,10.17
2018-11-13T08:35:17.526Z,7.87
2018-11-13T08:37:46.859Z,12.97
2018-11-13T08:40:17.336Z,12.80
2018-11-13T08:42:47.061Z,10.90
2018-11-13T08:45:16.617Z,7.73
2018-11-13T08:47:45.949Z,19.67
2018-11-13T08:50:15.780Z,11.97
2018-11-13T08:52:45.746Z,13.63
2018-11-13T08:55:14.978Z,17.47
2018-11-13T08:57:44.341Z,12.67
2018-11-13T09:00:15.408Z,7.73
2018-11-13T09:02:45.173Z,9.27
2018-11-13T09:05:14.586Z,13.50
2018-11-13T09:07:46.692Z,16.03
2018-11-13T09:10:17.562Z,12.10
2018-11-13T09:12:47.222Z,18.83
2018-11-13T09:15:17.854Z,14.03
2018-11-13T09:17:47.210Z,25.13
2018-11-13T09:20:17.680Z,19.70
2018-11-13T09:22:46.861Z,24.60
2018-11-13T09:25:20.089Z,20.73
2018-11-13T09:27:49.404Z,12.97
2018-11-13T09:30:20.232Z,19.07
2018-11-13T09:32:49.681Z,17.30
2018-11-13T09:35:19.629Z,13.97
2018-11-13T09:37:49.003Z,13.03
2018-11-13T09:40:19.608Z,12.10
2018-11-13T09:42:50.081Z,15.47
2018-11-13T09:45:19.636Z,22.80
2018-11-13T09:47:48.887Z,11.20
2018-11-13T09:50:19.285Z,16.53
2018-11-13T09:52:49.890Z,12.67
2018-11-13T09:55:20.371Z,11.97
2018-11-13T09:57:49.797Z,11.30
2018-11-13T10:00:20.633Z,9.80
2018-11-13T10:02:51.616Z,12.93
2018-11-13T10:05:21.153Z,10.50
2018-11-13T10:07:50.987Z,9.53
2018-11-13T10:10:20.127Z,10.20
2018-11-13T10:12:49.514Z,8.93
2018-11-13T10:15:21.182Z,10.33
2018-11-13T10:17:50.854Z,9.73
2018-11-13T10:20:20.041Z,7.37
2018-11-13T10:22:50.638Z,8.40
2018-11-13T10:25:20.103Z,7.80
2018-11-13T10:27:49.374Z,5.67
2018-11-13T10:30:19.755Z,3.97
2018-11-13T10:32:49.493Z,4.23
2018-11-13T10:35:19.977Z,3.73
2018-11-13T10:37:49.456Z,4.37
2018-11-13T10:40:20.029Z,3.90
2018-11-13T10:42:49.526Z,4.17
2018-11-13T10:45:20.287Z,3.30
2018-11-13T10:47:49.517Z,3.23
2018-11-13T10:50:20.443Z,3.10
2018-11-13T10:52:49.666Z,3.10
2018-11-13T10:55:18.832Z,2.83
2018-11-13T10:57:47.970Z,2.67
2018-11-13T11:00:22.917Z,2.60
2018-11-13T11:02:58.439Z,2.20
2018-11-13T11:05:28.393Z,2.53
2018-11-13T11:07:58.093Z,2.73
2018-11-13T11:10:28.131Z,2.63
2018-11-13T11:12:57.557Z,1.93
2018-11-13T11:15:26.737Z,2.50
2018-11-13T11:17:55.967Z,1.97
2018-11-13T11:20:25.165Z,2.10
2018-11-13T11:22:54.583Z,2.50
2018-11-13T11:25:24.100Z,2.20
2018-11-13T11:27:53.612Z,2.50
2018-11-13T11:30:22.945Z,2.47
2018-11-13T11:32:52.166Z,1.73
2018-11-13T11:35:21.510Z,2.10
2018-11-13T11:37:50.769Z,2.23
2018-11-13T11:40:19.933Z,2.30
2018-11-13T11:42:49.169Z,1.80
2018-11-13T11:45:18.276Z,2.03
2018-11-13T11:47:47.459Z,1.80
2018-11-13T11:50:16.758Z,1.90
2018-11-13T11:52:46.077Z,2.00
2018-11-13T11:55:15.351Z,1.70
2018-11-13T11:57:44.549Z,1.97
2018-11-13T12:00:16.298Z,2.10
2018-11-13T12:02:45.606Z,2.20
2018-11-13T12:05:14.773Z,2.20
2018-11-13T12:07:43.989Z,2.03
2018-11-13T12:10:14.076Z,2.03
2018-11-13T12:12:43.519Z,2.33
2018-11-13T12:15:13.558Z,2.40
2018-11-13T12:17:43.293Z,2.60
2018-11-13T12:20:13.709Z,2.00
2018-11-13T12:22:43.062Z,2.00
2018-11-13T12:25:16.150Z,2.30
2018-11-13T12:27:45.320Z,2.70
2018-11-13T12:30:16.630Z,2.10
2018-11-13T12:32:46.613Z,2.30
2018-11-13T12:35:16.661Z,2.37
2018-11-13T12:37:45.827Z,2.40
2018-11-13T12:40:17.173Z,2.47
2018-11-13T12:42:46.931Z,2.50
2018-11-13T12:45:16.213Z,2.33
2018-11-13T12:47:45.640Z,2.80
2018-11-13T12:50:16.310Z,2.30
2018-11-13T12:52:45.478Z,2.47
2018-11-13T12:55:20.233Z,2.40
2018-11-13T12:57:49.132Z,2.07
2018-11-13T13:00:21.341Z,2.20
2018-11-13T13:02:50.293Z,2.47
2018-11-13T13:05:19.566Z,2.10
2018-11-13T13:07:49.205Z,2.60
2018-11-13T13:10:19.341Z,3.00
2018-11-13T13:12:48.614Z,3.10
2018-11-13T13:15:18.380Z,3.40
2018-11-13T13:17:47.595Z,4.60
2018-11-13T13:20:23.433Z,8.03
2018-11-13T13:22:53.430Z,4.97
2018-11-13T13:25:23.676Z,3.40
2018-11-13T13:27:53.145Z,3.47
2018-11-13T13:30:23.807Z,3.00
2018-11-13T13:32:53.058Z,3.33
2018-11-13T13:35:39.269Z,4.43
2018-11-13T13:38:08.896Z,4.07
2018-11-13T13:40:39.160Z,4.20
2018-11-13T13:43:09.265Z,5.67
2018-11-13T13:45:39.142Z,6.20
2018-11-13T13:48:08.385Z,4.13
2018-11-13T13:50:38.064Z,4.90
2018-11-13T13:53:07.828Z,3.67
2018-11-13T13:55:37.385Z,5.47
2018-11-13T13:58:06.426Z,4.43
2018-11-13T14:00:35.798Z,5.57
2018-11-13T14:03:05.520Z,8.13
2018-11-13T14:05:34.552Z,3.63
2018-11-13T14:08:03.805Z,8.40
2018-11-13T14:10:33.011Z,3.53
2018-11-13T14:13:01.930Z,9.37
2018-11-13T14:15:31.279Z,3.57
2018-11-13T14:18:01.018Z,4.43
2018-11-13T14:20:30.619Z,3.40
2018-11-13T14:22:59.521Z,7.00
2018-11-13T14:25:28.817Z,3.90
2018-11-13T14:27:58.271Z,4.83
2018-11-13T14:30:28.853Z,3.73
2018-11-13T14:33:00.298Z,5.27
2018-11-13T14:35:29.240Z,4.57
2018-11-13T14:37:57.949Z,4.60
2018-11-13T14:40:30.298Z,8.37
2018-11-13T14:42:59.458Z,5.60
2018-11-13T14:45:28.794Z,6.10
2018-11-13T14:47:58.637Z,3.50
2018-11-13T14:50:29.120Z,3.87
2018-11-13T14:52:58.464Z,5.30
2018-11-13T14:55:32.551Z,5.13
2018-11-13T14:58:02.361Z,3.20
2018-11-13T15:00:32.471Z,3.50
2018-11-13T15:03:02.794Z,3.63
2018-11-13T15:05:32.269Z,2.90
2018-11-13T15:08:04.363Z,2.80
2018-11-13T15:10:36.309Z,2.40
2018-11-13T15:13:05.644Z,2.10
2018-11-13T15:15:34.534Z,2.40
2018-11-13T15:18:03.744Z,2.53
2018-11-13T15:20:33.042Z,2.60
2018-11-13T15:23:02.443Z,2.47
2018-11-13T15:25:31.545Z,2.80
2018-11-13T15:28:00.453Z,3.30
2018-11-13T15:30:31.257Z,5.90
2018-11-13T15:33:01.942Z,3.10
2018-11-13T15:35:31.370Z,3.00
2018-11-13T15:38:00.610Z,2.90
2018-11-13T15:40:30.466Z,3.50
2018-11-13T15:42:59.701Z,2.60
2018-11-13T15:45:28.612Z,2.80
2018-11-13T15:47:59.086Z,3.07
2018-11-13T15:50:29.400Z,3.20
2018-11-13T15:52:58.781Z,3.67
2018-11-13T15:55:28.120Z,3.20
2018-11-13T15:57:57.758Z,3.00
2018-11-13T16:00:29.338Z,3.23
2018-11-13T16:02:59.722Z,3.30
2018-11-13T16:05:32.419Z,4.00
2018-11-13T16:08:02.809Z,3.57
2018-11-13T16:10:32.085Z,4.00
2018-11-13T16:13:01.613Z,4.20
2018-11-13T16:15:31.313Z,4.33
2018-11-13T16:18:01.782Z,3.83
2018-11-13T16:20:31.084Z,4.30
2018-11-13T16:23:00.243Z,4.20
2018-11-13T16:25:29.370Z,4.20
2018-11-13T16:27:58.980Z,5.53
2018-11-13T16:30:33.577Z,4.63
2018-11-13T16:33:02.931Z,4.70
2018-11-13T16:35:32.629Z,5.33
2018-11-13T16:38:03.430Z,5.70
2018-11-13T16:40:33.615Z,6.73
2018-11-13T16:43:03.160Z,8.47
2018-11-13T16:45:33.369Z,8.20
2018-11-13T16:48:03.249Z,8.93
2018-11-13T16:50:34.924Z,7.87
2018-11-13T16:53:04.251Z,9.10
2018-11-13T16:55:38.593Z,7.93
2018-11-13T16:58:09.882Z,8.67
2018-11-13T17:00:39.368Z,7.77
2018-11-13T17:03:08.505Z,7.07
2018-11-13T17:05:37.968Z,7.80
2018-11-13T17:08:07.326Z,8.73
2018-11-13T17:10:40.068Z,10.07
2018-11-13T17:13:09.424Z,7.83
2018-11-13T17:15:38.707Z,8.80
2018-11-13T17:18:08.237Z,10.47
2018-11-13T17:20:37.610Z,7.83
2018-11-13T17:23:06.713Z,8.00
2018-11-13T17:25:37.190Z,7.50
2018-11-13T17:28:07.150Z,9.03
2018-11-13T17:30:37.002Z,8.70
2018-11-13T17:33:07.898Z,9.60
2018-11-13T17:35:37.101Z,8.40
2018-11-13T17:38:07.004Z,7.70
2018-11-13T17:40:38.313Z,7.80
2018-11-13T17:43:08.537Z,7.90
2018-11-13T17:45:39.261Z,8.43
2018-11-13T17:48:09.682Z,8.70
2018-11-13T17:50:40.210Z,6.90
2018-11-13T17:53:10.142Z,6.63
2018-11-13T17:55:39.621Z,7.10
2018-11-13T17:58:10.771Z,7.33
2018-11-13T18:00:41.906Z,7.20
2018-11-13T18:03:12.276Z,12.00
2018-11-13T18:05:41.893Z,7.37
2018-11-13T18:08:11.552Z,8.27
2018-11-13T18:10:42.011Z,7.00
2018-11-13T18:13:11.285Z,5.83
2018-11-13T18:15:40.833Z,5.90
2018-11-13T18:18:10.249Z,5.27
2018-11-13T18:20:40.413Z,5.23
2018-11-13T18:23:10.012Z,4.70
2018-11-13T18:25:38.969Z,4.73
2018-11-13T18:28:08.560Z,4.43
2018-11-13T18:30:38.884Z,4.33
2018-11-13T18:33:08.629Z,4.53
2018-11-13T18:35:39.417Z,4.30
2018-11-13T18:38:10.766Z,4.70
2018-11-13T18:40:40.065Z,4.23
2018-11-13T18:43:09.377Z,3.70
2018-11-13T18:45:39.977Z,4.63
2018-11-13T18:48:09.440Z,4.30
2018-11-13T18:50:42.244Z,3.30
2018-11-13T18:53:11.595Z,4.30
2018-11-13T18:55:41.149Z,3.70
2018-11-13T18:58:10.664Z,3.53
2018-11-13T19:00:40.777Z,4.57
2018-11-13T19:03:12.141Z,3.90
2018-11-13T19:05:41.472Z,3.70
2018-11-13T19:08:10.860Z,4.20
2018-11-13T19:10:41.594Z,7.13
2018-11-13T19:13:12.595Z,7.00
2018-11-13T19:15:43.706Z,4.40
2018-11-13T19:18:13.367Z,3.40
2018-11-13T19:20:42.949Z,3.47
2018-11-13T19:23:12.760Z,3.60
2018-11-13T19:25:42.366Z,5.93
2018-11-13T19:28:11.769Z,4.33
2018-11-13T19:30:41.364Z,3.93
2018-11-13T19:33:11.186Z,4.93
2018-11-13T19:35:40.826Z,3.73
2018-11-13T19:38:09.931Z,3.50
2018-11-13T19:40:39.182Z,3.60
2018-11-13T19:43:09.584Z,3.37
2018-11-13T19:45:39.258Z,3.80
2018-11-13T19:48:08.646Z,3.90
2018-11-13T19:50:38.561Z,3.90
2018-11-13T19:53:07.644Z,3.30
2018-11-13T19:55:37.353Z,5.47
2018-11-13T19:58:06.499Z,4.83
2018-11-13T20:00:37.055Z,6.10
2018-11-13T20:03:07.583Z,5.10
2018-11-13T20:05:36.981Z,4.63
2018-11-13T20:08:07.151Z,4.70
2018-11-13T20:10:36.948Z,4.20
2018-11-13T20:13:07.735Z,4.50
2018-11-13T20:15:37.633Z,4.23
2018-11-13T20:18:07.427Z,4.63
2018-11-13T20:20:37.443Z,4.87
2018-11-13T20:23:08.085Z,5.27
2018-11-13T20:25:37.490Z,5.63
2018-11-13T20:28:07.523Z,5.77
2018-11-13T20:30:38.234Z,7.00
2018-11-13T20:33:07.434Z,7.30
2018-11-13T20:35:36.442Z,7.77
2018-11-13T20:38:05.881Z,7.10
2018-11-13T20:40:35.891Z,8.40
2018-11-13T20:43:06.312Z,7.80
2018-11-13T20:45:35.264Z,8.57
2018-11-13T20:48:10.786Z,7.90
2018-11-13T20:50:39.690Z,7.47
2018-11-13T20:53:08.619Z,6.53
2018-11-13T20:55:37.551Z,8.57
2018-11-13T20:58:07.342Z,6.93
2018-11-13T21:00:37.602Z,6.83
2018-11-13T21:03:07.784Z,7.23
2018-11-13T21:05:36.777Z,6.23
2018-11-13T21:08:05.721Z,6.07
2018-11-13T21:10:40.546Z,6.33
2018-11-13T21:13:10.692Z,7.10
2018-11-13T21:15:39.593Z,7.27
2018-11-13T21:18:08.991Z,6.07
2018-11-13T21:20:38.145Z,6.77
2018-11-13T21:23:07.065Z,6.10
2018-11-13T21:25:36.034Z,5.80
2018-11-13T21:28:05.000Z,5.57
2018-11-13T21:30:33.985Z,5.93
2018-11-13T21:33:03.230Z,7.57
2018-11-13T21:35:32.490Z,5.80
2018-11-13T21:38:01.677Z,5.60
2018-11-13T21:40:30.602Z,5.67
2018-11-13T21:42:59.782Z,6.90
2018-11-13T21:45:29.359Z,7.30
2018-11-13T21:47:58.314Z,5.67
2018-11-13T21:50:28.541Z,6.33
2018-11-13T21:52:57.449Z,7.00
2018-11-13T21:55:27.659Z,6.80
2018-11-13T21:57:56.537Z,7.83
2018-11-13T22:00:28.418Z,9.47
2018-11-13T22:03:02.682Z,6.83
2018-11-13T22:05:32.401Z,7.00
2018-11-13T22:08:01.395Z,6.77
2018-11-13T22:10:30.501Z,7.47
2018-11-13T22:12:59.661Z,7.00
2018-11-13T22:15:29.657Z,9.03
2018-11-13T22:17:59.115Z,7.07
2018-11-13T22:20:28.029Z,6.30
2018-11-13T22:22:58.322Z,9.37
2018-11-13T22:25:27.732Z,5.97
2018-11-13T22:27:57.699Z,7.07
2018-11-13T22:30:30.850Z,9.17
2018-11-13T22:32:59.782Z,10.00
2018-11-13T22:35:28.742Z,12.50
2018-11-13T22:37:57.679Z,6.93
2018-11-13T22:40:27.969Z,7.07
2018-11-13T22:42:57.134Z,7.90
2018-11-13T22:45:27.264Z,6.67
2018-11-13T22:47:56.563Z,6.87
2018-11-13T22:50:30.590Z,6.97
2018-11-13T22:52:59.537Z,9.63
2018-11-13T22:55:29.189Z,8.13
2018-11-13T22:57:59.281Z,8.57
2018-11-13T23:00:39.365Z,8.17
2018-11-13T23:03:11.904Z,8.20
2018-11-13T23:05:48.273Z,9.53
2018-11-13T23:08:18.395Z,8.23
2018-11-13T23:10:48.616Z,9.93
2018-11-13T23:13:17.577Z,8.63
2018-11-13T23:15:46.811Z,8.47
2018-11-13T23:18:15.713Z,9.97
2018-11-13T23:20:44.687Z,7.40
2018-11-13T23:23:13.559Z,8.67
2018-11-13T23:25:42.813Z,8.40
2018-11-13T23:28:11.756Z,8.47
2018-11-13T23:30:40.729Z,8.00
2018-11-13T23:33:09.638Z,9.13
2018-11-13T23:35:38.793Z,8.60
2018-11-13T23:38:08.047Z,8.53
2018-11-13T23:40:37.253Z,8.87
2018-11-13T23:43:06.246Z,9.00
2018-11-13T23:45:35.117Z,9.17
2018-11-13T23:48:04.334Z,9.10
2018-11-13T23:50:33.273Z,9.93
2018-11-13T23:53:02.635Z,10.03
2018-11-13T23:55:31.754Z,9.00
2018-11-13T23:58:00.954Z,9.90
